Time;durP1;ratioP1;P1;durP2;ratioP2;P2;SDS_P1;SDS_P2;PMS_P1;PMS_P2;Temp;Humidity;BMP_temperature;BMP_pressure;BME280_temperature;BME280_humidity;BME280_pressure;Samples;Min_cycle;Max_cycle;Signal;HPM_P1;HPM_P2
2023/01/22 00:00:40;;;;;;;46.17;15.57;;;;;;;;;;5014581;28;20058;-88
2023/01/22 00:03:06;;;;;;;49.53;18.73;;;;;;;;;;4997659;28;20060;-88
2023/01/22 00:05:31;;;;;;;47.43;16.90;;;;;;;;;;4996217;28;20026;-88
2023/01/22 00:07:56;;;;;;;44.73;16.27;;;;;;;;;;4997296;28;20508;-88
2023/01/22 00:10:21;;;;;;;49.57;15.80;;;;;;;;;;4996688;28;20025;-88
2023/01/22 00:12:46;;;;;;;49.50;18.83;;;;;;;;;;4997412;28;20018;-88
2023/01/22 00:15:12;;;;;;;53.20;18.30;;;;;;;;;;4997253;28;20159;-88
2023/01/22 00:17:37;;;;;;;51.70;18.87;;;;;;;;;;4997464;28;20026;-88
2023/01/22 00:20:03;;;;;;;67.27;24.67;;;;;;;;;;5014182;28;20021;-88
2023/01/22 00:22:29;;;;;;;48.10;17.50;;;;;;;;;;5014846;28;20057;-88
2023/01/22 00:24:54;;;;;;;56.40;21.10;;;;;;;;;;4996981;28;20488;-88
2023/01/22 00:27:20;;;;;;;69.53;23.67;;;;;;;;;;5015069;28;20018;-88
2023/01/22 00:29:45;;;;;;;65.43;21.73;;;;;;;;;;5009177;28;20033;-88
2023/01/22 00:32:10;;;;;;;54.93;19.20;;;;;;;;;;4996832;28;20389;-88
2023/01/22 00:34:35;;;;;;;57.10;21.47;;;;;;;;;;4997086;28;20049;-88
2023/01/22 00:37:00;;;;;;;52.13;18.97;;;;;;;;;;5014479;28;20021;-88
2023/01/22 00:39:26;;;;;;;57.43;19.70;;;;;;;;;;5014506;28;20029;-88
2023/01/22 00:41:51;;;;;;;54.63;16.77;;;;;;;;;;5013494;28;20030;-88
2023/01/22 00:44:16;;;;;;;53.20;18.03;;;;;;;;;;4996514;28;20018;-88
2023/01/22 00:46:41;;;;;;;52.10;19.40;;;;;;;;;;5014617;28;20159;-88
2023/01/22 00:49:07;;;;;;;46.27;17.80;;;;;;;;;;5014166;28;20466;-88
2023/01/22 00:51:32;;;;;;;58.53;17.60;;;;;;;;;;4996845;28;20492;-88
2023/01/22 00:53:57;;;;;;;44.97;16.00;;;;;;;;;;4996471;28;20026;-88
2023/01/22 00:56:23;;;;;;;42.70;15.10;;;;;;;;;;4996401;28;20033;-88
2023/01/22 00:58:48;;;;;;;56.07;18.20;;;;;;;;;;5013910;28;20030;-88
2023/01/22 01:01:14;;;;;;;50.17;18.67;;;;;;;;;;4996591;28;20026;-88
2023/01/22 01:03:39;;;;;;;49.67;16.73;;;;;;;;;;5014056;28;20042;-88
2023/01/22 01:06:06;;;;;;;49.83;17.17;;;;;;;;;;4995846;28;20030;-88
2023/01/22 01:08:33;;;;;;;46.60;16.37;;;;;;;;;;4996134;28;20025;-88
2023/01/22 01:11:00;;;;;;;46.87;15.43;;;;;;;;;;4996252;28;20544;-88
2023/01/22 01:13:25;;;;;;;54.33;17.57;;;;;;;;;;5013437;28;20037;-88
2023/01/22 01:16:01;;;;;;;47.60;15.40;;;;;;;;;;4995978;28;20026;-88
2023/01/22 01:18:26;;;;;;;46.13;15.70;;;;;;;;;;5012808;28;20037;-88
2023/01/22 01:20:52;;;;;;;48.73;15.33;;;;;;;;;;4996022;28;20030;-88
2023/01/22 01:23:17;;;;;;;51.47;17.50;;;;;;;;;;5013649;28;20026;-87
2023/01/22 01:25:42;;;;;;;47.30;16.37;;;;;;;;;;4995257;28;20045;-88
2023/01/22 01:28:08;;;;;;;45.87;15.23;;;;;;;;;;5012006;28;20482;-87
2023/01/22 01:30:33;;;;;;;47.53;15.93;;;;;;;;;;4995658;28;20117;-87
2023/01/22 01:32:58;;;;;;;50.93;17.07;;;;;;;;;;4995749;28;20045;-88
2023/01/22 01:35:23;;;;;;;52.80;18.27;;;;;;;;;;4995672;28;20022;-88
2023/01/22 01:37:50;;;;;;;53.37;17.90;;;;;;;;;;5012800;28;20061;-88
2023/01/22 01:40:15;;;;;;;45.93;15.57;;;;;;;;;;5012928;28;20038;-88
2023/01/22 01:42:41;;;;;;;45.57;15.17;;;;;;;;;;5013516;28;20416;-88
2023/01/22 01:45:21;;;;;;;50.97;16.73;;;;;;;;;;4992709;28;20038;-88
2023/01/22 01:48:07;;;;;;;48.60;16.17;;;;;;;;;;4994864;28;20076;-88
2023/01/22 01:50:32;;;;;;;44.27;15.17;;;;;;;;;;4972090;28;20033;-89
2023/01/22 01:52:58;;;;;;;46.03;14.70;;;;;;;;;;5013327;28;20036;-88
2023/01/22 01:55:27;;;;;;;46.43;17.17;;;;;;;;;;5011785;28;20022;-88
2023/01/22 01:57:53;;;;;;;45.37;15.77;;;;;;;;;;5012974;28;20101;-88
2023/01/22 02:00:19;;;;;;;42.83;14.77;;;;;;;;;;5011619;28;20442;-88
2023/01/22 02:02:44;;;;;;;45.87;15.43;;;;;;;;;;5012925;28;20029;-87
2023/01/22 02:05:09;;;;;;;46.37;15.60;;;;;;;;;;5012890;28;20454;-88
2023/01/22 02:07:35;;;;;;;46.57;16.07;;;;;;;;;;5012987;28;20025;-88
2023/01/22 02:10:03;;;;;;;41.93;16.83;;;;;;;;;;4995252;28;20022;-88
2023/01/22 02:12:29;;;;;;;44.97;14.83;;;;;;;;;;4994544;28;20129;-88
2023/01/22 02:14:54;;;;;;;45.97;16.37;;;;;;;;;;5012753;28;20106;-88
2023/01/22 02:17:21;;;;;;;35.13;13.53;;;;;;;;;;4995331;28;20026;-88
2023/01/22 02:19:46;;;;;;;44.93;14.93;;;;;;;;;;5012399;28;20076;-88
2023/01/22 02:22:22;;;;;;;45.27;17.43;;;;;;;;;;5012532;28;20030;-88
2023/01/22 02:24:48;;;;;;;43.10;14.70;;;;;;;;;;5011261;28;20088;-88
2023/01/22 02:27:13;;;;;;;43.37;15.40;;;;;;;;;;5012275;28;20021;-88
2023/01/22 02:29:39;;;;;;;40.10;14.73;;;;;;;;;;5011856;28;20024;-88
2023/01/22 02:32:04;;;;;;;41.13;15.20;;;;;;;;;;5012726;28;20360;-88
2023/01/22 02:34:29;;;;;;;44.37;16.13;;;;;;;;;;5012491;28;20028;-88
2023/01/22 02:36:54;;;;;;;28.10;10.03;;;;;;;;;;5010047;28;20738;-88
2023/01/22 02:39:20;;;;;;;40.97;14.93;;;;;;;;;;5011022;28;20033;-88
2023/01/22 02:41:45;;;;;;;43.53;15.47;;;;;;;;;;5012347;28;20022;-88
2023/01/22 02:44:10;;;;;;;39.80;15.10;;;;;;;;;;4994595;28;20084;-87
2023/01/22 02:46:35;;;;;;;44.67;18.43;;;;;;;;;;4994521;28;20037;-88
2023/01/22 02:49:01;;;;;;;47.03;15.90;;;;;;;;;;5011547;28;20010;-88
2023/01/22 02:51:26;;;;;;;45.50;16.60;;;;;;;;;;5011968;28;20033;-88
2023/01/22 02:53:52;;;;;;;42.27;15.43;;;;;;;;;;5011042;28;20033;-87
2023/01/22 02:56:17;;;;;;;46.47;15.50;;;;;;;;;;4994721;28;20033;-88
2023/01/22 02:58:42;;;;;;;38.70;13.77;;;;;;;;;;4994436;28;20088;-88
2023/01/22 03:01:17;;;;;;;43.37;15.37;;;;;;;;;;4993824;28;20485;-88
2023/01/22 03:03:42;;;;;;;49.17;16.23;;;;;;;;;;4994470;28;20032;-88
2023/01/22 03:06:07;;;;;;;42.53;15.93;;;;;;;;;;5012395;28;20045;-88
2023/01/22 03:08:33;;;;;;;37.13;13.80;;;;;;;;;;4994096;28;20021;-88
2023/01/22 03:10:58;;;;;;;43.73;15.67;;;;;;;;;;5012128;28;20029;-88
2023/01/22 03:21:37;;;;;;;42.00;15.00;;;;;;;;;;5012079;28;20660;-85
2023/01/22 03:24:02;;;;;;;41.67;15.27;;;;;;;;;;4991893;28;20036;-86
2023/01/22 03:26:30;;;;;;;40.93;14.13;;;;;;;;;;4992875;28;20022;-85
2023/01/22 03:28:55;;;;;;;42.97;15.10;;;;;;;;;;4977648;28;20026;-85
2023/01/22 03:31:20;;;;;;;38.17;13.40;;;;;;;;;;4994040;28;20084;-85
2023/01/22 03:33:46;;;;;;;40.37;14.57;;;;;;;;;;4993803;28;20018;-85
2023/01/22 03:36:12;;;;;;;32.43;12.87;;;;;;;;;;4993405;28;20018;-85
2023/01/22 03:38:37;;;;;;;37.47;14.67;;;;;;;;;;5010621;28;20030;-85
2023/01/22 03:41:04;;;;;;;42.53;15.00;;;;;;;;;;4997187;28;20367;-85
2023/01/22 03:43:29;;;;;;;33.97;15.00;;;;;;;;;;4996690;28;20084;-85
2023/01/22 03:45:59;;;;;;;38.40;14.17;;;;;;;;;;4987255;28;20409;-85
2023/01/22 03:48:24;;;;;;;38.17;13.90;;;;;;;;;;4996469;28;20045;-85
2023/01/22 03:50:49;;;;;;;34.47;13.33;;;;;;;;;;4997217;28;20018;-86
2023/01/22 03:53:14;;;;;;;39.60;13.70;;;;;;;;;;5014893;28;20033;-86
2023/01/22 03:55:39;;;;;;;39.20;14.93;;;;;;;;;;4997100;28;20022;-85
2023/01/22 03:58:05;;;;;;;39.63;16.00;;;;;;;;;;4997248;28;20117;-85
2023/01/22 04:00:30;;;;;;;44.57;15.87;;;;;;;;;;5005391;28;20030;-85
2023/01/22 04:02:55;;;;;;;40.53;15.47;;;;;;;;;;4996592;28;20605;-85
2023/01/22 04:05:20;;;;;;;39.03;15.63;;;;;;;;;;4996715;28;20022;-85
2023/01/22 04:07:47;;;;;;;45.33;15.87;;;;;;;;;;5014673;28;20018;-85
2023/01/22 04:10:12;;;;;;;36.87;12.87;;;;;;;;;;4996762;28;20037;-85
2023/01/22 04:12:38;;;;;;;33.87;13.90;;;;;;;;;;4996061;28;20026;-85
2023/01/22 04:15:03;;;;;;;39.83;15.13;;;;;;;;;;4996093;28;20101;-85
2023/01/22 04:17:28;;;;;;;33.60;13.10;;;;;;;;;;4996300;28;20112;-85
2023/01/22 04:19:53;;;;;;;38.93;14.90;;;;;;;;;;4996370;28;20461;-86
2023/01/22 04:22:19;;;;;;;32.43;13.93;;;;;;;;;;4996676;28;20037;-85
2023/01/22 04:24:44;;;;;;;44.33;14.67;;;;;;;;;;4995627;28;20021;-85
2023/01/22 04:27:09;;;;;;;34.90;13.43;;;;;;;;;;4996124;28;20045;-85
2023/01/22 04:29:34;;;;;;;42.27;15.30;;;;;;;;;;4996300;28;20116;-85
2023/01/22 04:31:59;;;;;;;37.10;14.63;;;;;;;;;;4996448;28;20056;-85
2023/01/22 04:34:25;;;;;;;36.67;15.50;;;;;;;;;;5014249;28;20026;-85
2023/01/22 04:36:50;;;;;;;36.37;14.73;;;;;;;;;;4995909;28;20033;-85
2023/01/22 04:39:15;;;;;;;36.37;14.10;;;;;;;;;;4995916;28;20034;-85
2023/01/22 04:41:40;;;;;;;32.97;12.87;;;;;;;;;;4996136;28;20029;-86
2023/01/22 04:44:05;;;;;;;40.93;15.30;;;;;;;;;;4995982;28;20029;-85
2023/01/22 04:46:31;;;;;;;35.67;14.30;;;;;;;;;;5002360;28;20019;-85
2023/01/22 04:48:56;;;;;;;33.47;13.80;;;;;;;;;;5011704;28;20373;-85
2023/01/22 04:51:21;;;;;;;32.63;13.63;;;;;;;;;;4995462;28;20076;-85
2023/01/22 04:53:47;;;;;;;31.37;12.73;;;;;;;;;;4995761;28;20675;-85
2023/01/22 04:56:12;;;;;;;31.30;13.43;;;;;;;;;;4996221;28;20112;-85
2023/01/22 04:58:37;;;;;;;29.47;13.00;;;;;;;;;;4995547;28;20048;-84
2023/01/22 05:01:02;;;;;;;39.63;14.70;;;;;;;;;;4995541;28;20450;-85
2023/01/22 05:03:27;;;;;;;32.37;13.10;;;;;;;;;;4995577;28;20025;-85
2023/01/22 05:05:53;;;;;;;39.00;15.27;;;;;;;;;;4995887;28;20018;-84
2023/01/22 05:08:18;;;;;;;33.67;13.57;;;;;;;;;;4995868;28;20092;-85
2023/01/22 05:10:43;;;;;;;31.37;13.97;;;;;;;;;;4995460;28;20029;-85
2023/01/22 05:13:08;;;;;;;38.97;14.00;;;;;;;;;;5012171;28;20061;-85
2023/01/22 05:15:34;;;;;;;32.30;13.23;;;;;;;;;;4995651;28;20116;-85
2023/01/22 05:17:59;;;;;;;28.63;12.73;;;;;;;;;;5013196;28;20049;-85
2023/01/22 05:20:24;;;;;;;32.87;13.00;;;;;;;;;;4995677;28;20026;-85
2023/01/22 05:22:50;;;;;;;33.87;13.57;;;;;;;;;;4995450;28;20034;-85
2023/01/22 05:25:15;;;;;;;30.37;11.97;;;;;;;;;;4994573;28;20084;-85
2023/01/22 05:27:40;;;;;;;29.33;13.10;;;;;;;;;;4995515;28;20361;-85
2023/01/22 05:30:06;;;;;;;30.87;12.30;;;;;;;;;;4994936;28;20113;-85
2023/01/22 05:32:31;;;;;;;31.87;12.63;;;;;;;;;;4995432;28;20033;-85
2023/01/22 05:34:56;;;;;;;30.20;11.90;;;;;;;;;;4995169;28;20501;-85
2023/01/22 05:37:21;;;;;;;29.83;11.17;;;;;;;;;;4994727;28;20026;-85
2023/01/22 05:39:47;;;;;;;29.13;12.83;;;;;;;;;;4994958;28;20107;-84
2023/01/22 05:42:13;;;;;;;31.93;12.43;;;;;;;;;;5012682;28;20018;-85
2023/01/22 05:44:38;;;;;;;34.60;12.80;;;;;;;;;;4991721;28;20096;-84
2023/01/22 05:47:04;;;;;;;29.97;11.50;;;;;;;;;;5008859;28;20490;-84
2023/01/22 05:49:29;;;;;;;29.27;11.73;;;;;;;;;;4994381;28;20465;-85
2023/01/22 05:51:54;;;;;;;30.33;12.80;;;;;;;;;;4994776;28;20694;-84
2023/01/22 05:54:19;;;;;;;24.83;11.10;;;;;;;;;;5012612;28;20030;-84
2023/01/22 05:56:45;;;;;;;27.17;10.70;;;;;;;;;;4994929;28;20060;-84
2023/01/22 05:59:10;;;;;;;27.87;12.50;;;;;;;;;;4994675;28;20092;-85
2023/01/22 06:01:35;;;;;;;30.77;12.13;;;;;;;;;;4993906;28;20493;-84
2023/01/22 06:04:00;;;;;;;23.97;11.10;;;;;;;;;;4993817;28;20026;-84
2023/01/22 06:06:26;;;;;;;25.73;11.37;;;;;;;;;;5012521;28;20366;-84
2023/01/22 06:08:51;;;;;;;26.03;11.40;;;;;;;;;;4994480;28;20465;-84
2023/01/22 06:11:17;;;;;;;26.47;10.80;;;;;;;;;;4994092;28;20128;-84
2023/01/22 06:13:42;;;;;;;22.13;8.20;;;;;;;;;;4993579;28;20026;-85
2023/01/22 06:16:07;;;;;;;17.70;7.23;;;;;;;;;;4994247;28;20022;-84
2023/01/22 06:18:33;;;;;;;28.67;10.03;;;;;;;;;;4994406;28;20030;-84
2023/01/22 06:21:00;;;;;;;25.87;11.50;;;;;;;;;;4994722;28;20380;-84
2023/01/22 06:23:26;;;;;;;23.60;10.03;;;;;;;;;;4994247;28;20357;-85
2023/01/22 06:25:52;;;;;;;28.40;10.33;;;;;;;;;;5011356;28;20415;-85
2023/01/22 06:28:17;;;;;;;22.80;9.87;;;;;;;;;;4994287;28;20032;-84
2023/01/22 06:30:42;;;;;;;22.30;9.33;;;;;;;;;;4994467;28;20022;-84
2023/01/22 06:33:08;;;;;;;23.27;10.07;;;;;;;;;;4994312;28;20477;-84
2023/01/22 06:35:33;;;;;;;21.57;9.63;;;;;;;;;;4994345;28;20060;-84
2023/01/22 06:37:58;;;;;;;23.07;9.37;;;;;;;;;;4993340;28;20025;-85
2023/01/22 06:40:23;;;;;;;24.57;9.73;;;;;;;;;;4993910;28;20033;-85
2023/01/22 06:42:48;;;;;;;19.30;9.13;;;;;;;;;;4994045;28;20022;-84
2023/01/22 06:45:14;;;;;;;15.20;7.07;;;;;;;;;;4986873;28;20069;-84
2023/01/22 06:47:43;;;;;;;19.37;7.67;;;;;;;;;;4994380;28;20046;-84
2023/01/22 06:50:09;;;;;;;17.27;8.20;;;;;;;;;;4992976;28;20918;-84
2023/01/22 06:52:34;;;;;;;17.17;7.60;;;;;;;;;;4993791;28;20021;-84
2023/01/22 06:54:59;;;;;;;24.53;10.37;;;;;;;;;;4993988;28;20057;-85
2023/01/22 06:57:24;;;;;;;21.53;9.90;;;;;;;;;;4994071;28;20018;-84
2023/01/22 06:59:49;;;;;;;13.47;5.23;;;;;;;;;;4993871;28;20389;-84
2023/01/22 07:02:16;;;;;;;19.73;8.57;;;;;;;;;;4992705;28;20113;-85
2023/01/22 07:04:41;;;;;;;17.13;7.87;;;;;;;;;;4993776;28;20029;-85
2023/01/22 07:07:06;;;;;;;23.50;10.13;;;;;;;;;;4994298;28;20354;-84
2023/01/22 07:09:32;;;;;;;16.50;7.43;;;;;;;;;;4993540;28;20477;-84
2023/01/22 07:11:59;;;;;;;22.30;9.63;;;;;;;;;;5011106;28;20018;-83
2023/01/22 07:14:25;;;;;;;23.33;8.57;;;;;;;;;;4993607;28;20033;-84
2023/01/22 07:16:50;;;;;;;21.60;9.27;;;;;;;;;;4997618;28;20347;-84
2023/01/22 07:19:15;;;;;;;23.97;10.27;;;;;;;;;;4997691;28;20335;-85
2023/01/22 07:21:40;;;;;;;28.10;11.40;;;;;;;;;;4997673;28;20014;-84
2023/01/22 07:24:05;;;;;;;24.27;10.20;;;;;;;;;;5015307;28;20014;-84
2023/01/22 07:26:31;;;;;;;22.90;8.63;;;;;;;;;;5014016;28;20022;-84
2023/01/22 07:28:56;;;;;;;21.60;9.33;;;;;;;;;;4996055;28;20018;-84
2023/01/22 07:31:21;;;;;;;22.03;9.17;;;;;;;;;;4997595;28;20109;-85
2023/01/22 07:33:46;;;;;;;21.40;9.63;;;;;;;;;;4996702;28;20112;-84
2023/01/22 07:36:12;;;;;;;26.10;11.07;;;;;;;;;;4997469;28;20469;-84
2023/01/22 07:38:40;;;;;;;24.50;10.00;;;;;;;;;;5012831;28;20079;-84
2023/01/22 07:41:05;;;;;;;21.17;9.37;;;;;;;;;;4996980;28;20049;-84
2023/01/22 07:43:31;;;;;;;21.00;9.33;;;;;;;;;;4997074;28;20025;-83
2023/01/22 07:45:59;;;;;;;22.03;9.40;;;;;;;;;;4997561;28;20028;-84
2023/01/22 07:48:24;;;;;;;27.33;10.77;;;;;;;;;;4997235;28;20025;-83
2023/01/22 07:50:49;;;;;;;21.17;10.07;;;;;;;;;;4997184;28;20578;-84
2023/01/22 07:53:14;;;;;;;25.73;10.23;;;;;;;;;;4995189;28;20053;-84
2023/01/22 07:55:40;;;;;;;23.60;10.80;;;;;;;;;;4996596;28;20018;-84
2023/01/22 07:58:06;;;;;;;23.30;8.93;;;;;;;;;;4996343;28;20026;-85
2023/01/22 08:00:33;;;;;;;24.43;9.10;;;;;;;;;;4996774;28;20037;-84
2023/01/22 08:02:58;;;;;;;23.27;10.23;;;;;;;;;;4997146;28;20440;-84
2023/01/22 08:05:24;;;;;;;22.57;10.30;;;;;;;;;;4996582;28;20117;-84
2023/01/22 08:07:49;;;;;;;23.83;11.40;;;;;;;;;;4995999;28;20671;-84
2023/01/22 08:10:15;;;;;;;20.97;10.20;;;;;;;;;;4996855;28;20027;-84
2023/01/22 08:12:42;;;;;;;22.37;10.80;;;;;;;;;;5014745;28;20129;-83
2023/01/22 08:15:08;;;;;;;25.37;10.43;;;;;;;;;;4996513;28;20461;-84
2023/01/22 08:17:33;;;;;;;25.50;10.50;;;;;;;;;;5014332;28;20026;-84
2023/01/22 08:19:59;;;;;;;21.93;10.13;;;;;;;;;;4995946;28;20030;-85
2023/01/22 08:22:24;;;;;;;23.90;10.63;;;;;;;;;;4996803;28;20105;-84
2023/01/22 08:24:49;;;;;;;23.97;11.27;;;;;;;;;;4996384;28;20156;-84
2023/01/22 08:27:15;;;;;;;22.93;10.20;;;;;;;;;;4995666;28;20029;-84
2023/01/22 08:29:40;;;;;;;24.43;9.50;;;;;;;;;;4996288;28;20404;-83
2023/01/22 08:32:05;;;;;;;23.93;10.60;;;;;;;;;;5013455;28;20017;-84
2023/01/22 08:34:30;;;;;;;22.20;9.77;;;;;;;;;;4996518;28;20026;-85
2023/01/22 08:36:56;;;;;;;20.80;9.73;;;;;;;;;;4996444;28;20099;-84
2023/01/22 08:39:21;;;;;;;22.23;10.00;;;;;;;;;;5013831;28;20030;-84
2023/01/22 08:41:46;;;;;;;25.10;10.13;;;;;;;;;;4996041;28;20084;-84
2023/01/22 08:44:12;;;;;;;24.27;9.67;;;;;;;;;;5011948;28;20022;-84
2023/01/22 08:46:39;;;;;;;25.77;9.93;;;;;;;;;;4996034;28;20017;-84
2023/01/22 08:49:04;;;;;;;23.70;10.50;;;;;;;;;;5013429;28;20523;-84
2023/01/22 08:51:29;;;;;;;30.30;10.93;;;;;;;;;;4996068;28;20025;-85
2023/01/22 08:53:55;;;;;;;24.60;10.63;;;;;;;;;;5011991;28;20030;-84
2023/01/22 08:56:20;;;;;;;26.37;10.83;;;;;;;;;;5012634;28;20108;-84
2023/01/22 08:58:47;;;;;;;23.67;10.43;;;;;;;;;;4995792;28;20022;-84
2023/01/22 09:01:13;;;;;;;24.53;11.33;;;;;;;;;;4995947;28;20029;-84
2023/01/22 09:03:38;;;;;;;25.77;11.20;;;;;;;;;;5013472;28;20026;-84
2023/01/22 09:06:03;;;;;;;26.50;11.17;;;;;;;;;;4995291;28;20351;-84
2023/01/22 09:08:29;;;;;;;26.27;10.40;;;;;;;;;;4995289;28;20028;-85
2023/01/22 09:10:54;;;;;;;22.37;10.07;;;;;;;;;;4995707;28;20032;-85
2023/01/22 09:13:19;;;;;;;25.73;9.63;;;;;;;;;;4994871;28;20057;-84
2023/01/22 09:15:44;;;;;;;18.50;8.40;;;;;;;;;;4995528;28;20105;-84
2023/01/22 09:18:09;;;;;;;23.43;10.27;;;;;;;;;;4995779;28;20030;-84
2023/01/22 09:20:35;;;;;;;22.93;9.90;;;;;;;;;;5013201;28;20044;-84
2023/01/22 09:23:00;;;;;;;23.47;11.27;;;;;;;;;;5010607;28;20084;-84
2023/01/22 09:25:28;;;;;;;19.33;8.50;;;;;;;;;;4994820;28;20029;-85
2023/01/22 09:27:57;;;;;;;24.93;10.03;;;;;;;;;;4995168;28;20025;-84
2023/01/22 09:30:25;;;;;;;25.80;10.17;;;;;;;;;;4995117;28;20053;-84
2023/01/22 09:32:50;;;;;;;27.77;12.37;;;;;;;;;;4995177;28;20362;-84
2023/01/22 09:35:15;;;;;;;20.93;8.87;;;;;;;;;;4994078;28;20080;-84
2023/01/22 09:37:40;;;;;;;22.33;10.23;;;;;;;;;;4994810;28;20030;-85
2023/01/22 09:40:06;;;;;;;27.40;11.80;;;;;;;;;;4994267;28;20026;-85
2023/01/22 09:42:33;;;;;;;27.30;11.27;;;;;;;;;;4994640;28;20038;-85
2023/01/22 09:45:10;;;;;;;28.50;11.60;;;;;;;;;;4987414;28;20106;-84
2023/01/22 09:47:40;;;;;;;26.07;11.37;;;;;;;;;;4993944;28;20390;-84
2023/01/22 09:50:11;;;;;;;26.77;10.83;;;;;;;;;;5012259;28;20097;-84
2023/01/22 09:52:37;;;;;;;24.43;10.93;;;;;;;;;;4994987;28;20395;-85
2023/01/22 09:55:07;;;;;;;22.43;9.80;;;;;;;;;;4993811;28;20026;-84
2023/01/22 09:57:34;;;;;;;24.77;9.60;;;;;;;;;;4994753;28;20442;-85
2023/01/22 09:59:59;;;;;;;22.97;10.70;;;;;;;;;;4994861;28;20033;-84
2023/01/22 10:02:30;;;;;;;21.43;10.17;;;;;;;;;;4994856;28;20026;-84
2023/01/22 10:05:04;;;;;;;19.00;8.83;;;;;;;;;;4993802;28;20041;-84
2023/01/22 10:07:33;;;;;;;23.20;9.17;;;;;;;;;;5012729;28;20144;-85
2023/01/22 10:10:00;;;;;;;20.67;9.67;;;;;;;;;;4994565;28;20376;-85
2023/01/22 10:12:28;;;;;;;22.60;10.23;;;;;;;;;;5012330;28;20026;-85
2023/01/22 10:14:54;;;;;;;19.83;9.40;;;;;;;;;;4993411;28;20504;-85
2023/01/22 10:17:24;;;;;;;26.13;10.10;;;;;;;;;;4994173;28;20030;-85
2023/01/22 10:19:52;;;;;;;23.53;9.17;;;;;;;;;;4994140;28;20026;-84
2023/01/22 10:22:22;;;;;;;21.70;10.23;;;;;;;;;;4994590;28;20033;-85
2023/01/22 10:24:47;;;;;;;24.07;9.73;;;;;;;;;;5010605;28;20034;-84
2023/01/22 10:27:17;;;;;;;21.43;9.47;;;;;;;;;;4994500;28;20033;-85
2023/01/22 10:30:06;;;;;;;17.40;7.97;;;;;;;;;;4993362;28;20330;-84
2023/01/22 10:32:31;;;;;;;19.23;9.83;;;;;;;;;;4994603;28;20087;-85
2023/01/22 10:35:02;;;;;;;22.00;8.73;;;;;;;;;;4992496;28;20436;-85
2023/01/22 10:37:28;;;;;;;19.53;9.53;;;;;;;;;;5012060;28;20057;-85
2023/01/22 10:39:58;;;;;;;19.03;9.10;;;;;;;;;;4994029;28;20038;-85
2023/01/22 10:42:24;;;;;;;19.50;8.90;;;;;;;;;;4981766;28;20467;-85
2023/01/22 10:44:53;;;;;;;18.83;8.67;;;;;;;;;;4991897;28;20401;-85
2023/01/22 10:47:20;;;;;;;17.87;8.50;;;;;;;;;;4993724;28;20595;-85
2023/01/22 10:50:00;;;;;;;18.27;8.87;;;;;;;;;;5015645;28;20378;-85
2023/01/22 10:52:33;;;;;;;25.00;10.20;;;;;;;;;;5018423;28;20105;-85
2023/01/22 10:55:00;;;;;;;23.10;10.00;;;;;;;;;;4999993;28;20036;-85
2023/01/22 10:57:27;;;;;;;33.70;14.77;;;;;;;;;;4998965;28;20020;-85
2023/01/22 10:59:52;;;;;;;70.40;29.23;;;;;;;;;;5000443;28;20040;-85
2023/01/22 11:02:20;;;;;;;34.60;13.67;;;;;;;;;;5000469;28;20357;-85
2023/01/22 11:04:48;;;;;;;27.53;14.50;;;;;;;;;;5018430;28;20022;-84
2023/01/22 11:07:19;;;;;;;24.97;11.13;;;;;;;;;;5000435;28;20014;-85
2023/01/22 11:09:54;;;;;;;25.57;10.93;;;;;;;;;;4999627;28;20042;-85
2023/01/22 11:12:21;;;;;;;18.50;9.67;;;;;;;;;;5018040;28;20022;-85
2023/01/22 11:14:50;;;;;;;21.30;10.73;;;;;;;;;;5000222;28;20109;-85
2023/01/22 11:17:21;;;;;;;18.77;9.27;;;;;;;;;;5000470;28;20160;-85
2023/01/22 11:20:09;;;;;;;20.17;8.73;;;;;;;;;;4999260;28;20552;-85
2023/01/22 11:22:37;;;;;;;19.53;8.97;;;;;;;;;;4999887;28;20048;-85
2023/01/22 11:25:02;;;;;;;20.83;9.30;;;;;;;;;;5000262;28;20151;-85
2023/01/22 11:27:30;;;;;;;21.37;10.40;;;;;;;;;;5000527;28;20096;-85
2023/01/22 11:30:02;;;;;;;21.50;9.23;;;;;;;;;;5000195;28;20022;-85
2023/01/22 11:32:46;;;;;;;19.07;9.17;;;;;;;;;;4999291;28;20160;-85
2023/01/22 11:35:18;;;;;;;19.87;8.57;;;;;;;;;;5016267;28;20255;-85
2023/01/22 11:37:59;;;;;;;18.08;8.35;;;;;;;;;;5000689;28;20169;-85
2023/01/22 11:40:27;;;;;;;19.30;8.80;;;;;;;;;;5017266;28;20065;-85
2023/01/22 11:43:17;;;;;;;20.80;8.63;;;;;;;;;;4999994;28;20461;-85
2023/01/22 11:45:52;;;;;;;22.33;9.27;;;;;;;;;;4972954;28;20528;-85
2023/01/22 11:48:36;;;;;;;21.50;9.70;;;;;;;;;;4996722;28;20026;-85
2023/01/22 11:51:14;;;;;;;22.63;9.97;;;;;;;;;;5005538;28;20699;-84
2023/01/22 11:53:47;;;;;;;65.03;26.87;;;;;;;;;;4999964;28;20049;-85
2023/01/22 11:56:30;;;;;;;47.57;20.17;;;;;;;;;;5000325;28;20037;-86
2023/01/22 11:59:01;;;;;;;19.30;8.57;;;;;;;;;;5000067;28;20767;-85
2023/01/22 12:01:45;;;;;;;24.47;11.07;;;;;;;;;;4997455;28;20153;-84
2023/01/22 12:04:22;;;;;;;19.97;8.67;;;;;;;;;;4996905;28;20118;-86
2023/01/22 12:06:56;;;;;;;23.63;11.20;;;;;;;;;;5000974;28;20018;-85
2023/01/22 12:09:30;;;;;;;31.57;13.83;;;;;;;;;;4991864;28;20038;-86
2023/01/22 12:12:23;;;;;;;29.93;11.77;;;;;;;;;;4996828;28;20117;-86
2023/01/22 12:15:03;;;;;;;30.15;12.73;;;;;;;;;;4996413;28;20029;-86
2023/01/22 12:17:31;;;;;;;20.53;8.63;;;;;;;;;;4996588;28;20037;-86
2023/01/22 12:20:15;;;;;;;21.53;9.60;;;;;;;;;;4996361;28;20028;-86
2023/01/22 12:22:54;;;;;;;19.73;9.03;;;;;;;;;;4996591;28;20060;-85
2023/01/22 12:25:43;;;;;;;18.80;9.43;;;;;;;;;;4983583;28;20465;-86
2023/01/22 12:28:24;;;;;;;22.50;9.23;;;;;;;;;;4996404;28;20014;-85
2023/01/22 12:30:56;;;;;;;20.33;8.80;;;;;;;;;;4995541;28;20033;-86
2023/01/22 12:33:24;;;;;;;20.97;9.33;;;;;;;;;;4996400;28;20430;-85
2023/01/22 12:35:53;;;;;;;18.73;9.37;;;;;;;;;;4996392;28;20116;-82
2023/01/22 12:38:19;;;;;;;21.33;9.13;;;;;;;;;;4995918;28;20026;-83
2023/01/22 12:40:51;;;;;;;22.97;10.47;;;;;;;;;;5014583;28;20052;-91
2023/01/22 12:43:18;;;;;;;18.77;8.25;;;;;;;;;;4996847;28;20030;-90
2023/01/22 12:46:07;;;;;;;30.43;12.50;;;;;;;;;;4997284;28;20022;-91
2023/01/22 12:48:45;;;;;;;31.47;13.40;;;;;;;;;;4996977;28;20026;-91
2023/01/22 12:51:24;;;;;;;20.93;9.80;;;;;;;;;;4997210;28;20044;-91
2023/01/22 12:53:49;;;;;;;21.63;9.80;;;;;;;;;;4996188;28;20125;-91
2023/01/22 12:56:27;;;;;;;21.23;8.43;;;;;;;;;;4996693;28;20069;-91
2023/01/22 12:58:55;;;;;;;21.77;9.30;;;;;;;;;;4996870;28;20053;-91
2023/01/22 13:01:21;;;;;;;23.70;8.83;;;;;;;;;;4996839;28;20132;-91
2023/01/22 13:03:55;;;;;;;21.37;9.20;;;;;;;;;;4997059;28;20073;-91
2023/01/22 13:06:28;;;;;;;21.77;10.27;;;;;;;;;;4996228;28;20040;-91
2023/01/22 13:08:54;;;;;;;15.87;8.30;;;;;;;;;;4996888;28;20489;-91
2023/01/22 13:11:36;;;;;;;15.97;8.80;;;;;;;;;;4996739;28;20033;-92
2023/01/22 13:14:17;;;;;;;19.38;8.77;;;;;;;;;;4996520;28;20089;-91
2023/01/22 13:16:49;;;;;;;18.70;8.77;;;;;;;;;;4996930;28;20461;-91
2023/01/22 13:19:14;;;;;;;;;;;;;;;;;;4996221;28;20022;-91
2023/01/22 13:21:40;;;;;;;23.98;10.55;;;;;;;;;;5013125;28;19932;-91
2023/01/22 13:24:11;;;;;;;26.43;10.57;;;;;;;;;;4995801;28;20041;-91
2023/01/22 13:26:36;;;;;;;20.23;9.27;;;;;;;;;;5014073;28;20034;-91
2023/01/22 13:29:03;;;;;;;21.50;9.73;;;;;;;;;;4995473;28;20021;-90
2023/01/22 13:31:29;;;;;;;19.37;9.00;;;;;;;;;;4995766;28;20030;-91
2023/01/22 13:33:55;;;;;;;21.03;8.83;;;;;;;;;;5013722;28;20494;-91
2023/01/22 13:36:20;;;;;;;24.40;10.13;;;;;;;;;;5013964;28;20029;-90
2023/01/22 13:38:56;;;;;;;21.77;10.30;;;;;;;;;;4995889;28;20113;-91
2023/01/22 13:41:42;;;;;;;22.43;9.73;;;;;;;;;;4995452;28;20093;-91
2023/01/22 13:44:14;;;;;;;21.33;9.40;;;;;;;;;;5012591;28;20087;-91
2023/01/22 13:46:39;;;;;;;18.17;8.73;;;;;;;;;;4996154;28;20437;-91
2023/01/22 13:49:24;;;;;;;21.63;8.97;;;;;;;;;;5013176;28;20072;-91
2023/01/22 13:51:49;;;;;;;26.73;10.43;;;;;;;;;;4995846;28;20041;-90
2023/01/22 13:54:24;;;;;;;20.93;10.13;;;;;;;;;;4995211;28;20025;-91
2023/01/22 13:56:50;;;;;;;25.70;9.57;;;;;;;;;;4996026;28;20389;-91
2023/01/22 13:59:20;;;;;;;22.03;10.30;;;;;;;;;;4995032;28;20022;-91
2023/01/22 14:01:45;;;;;;;23.83;9.47;;;;;;;;;;4995729;28;20373;-91
2023/01/22 14:04:40;;;;;;;22.27;10.40;;;;;;;;;;5013074;28;20029;-91
2023/01/22 14:07:05;;;;;;;17.17;8.80;;;;;;;;;;4986204;28;20034;-91
2023/01/22 14:09:35;;;;;;;23.87;10.80;;;;;;;;;;5012932;28;20303;-91
2023/01/22 14:12:11;;;;;;;24.27;9.20;;;;;;;;;;4995671;28;20029;-90
2023/01/22 14:14:39;;;;;;;20.57;9.33;;;;;;;;;;4995575;28;20014;-91
2023/01/22 14:17:05;;;;;;;20.30;8.77;;;;;;;;;;4994659;28;20018;-90
2023/01/22 14:19:30;;;;;;;21.43;9.63;;;;;;;;;;4995107;28;20071;-89
2023/01/22 14:21:56;;;;;;;20.27;9.17;;;;;;;;;;4995386;28;20509;-90
2023/01/22 14:24:21;;;;;;;20.67;8.77;;;;;;;;;;5011815;28;20026;-89
2023/01/22 14:26:46;;;;;;;20.97;9.43;;;;;;;;;;5012620;28;20024;-90
2023/01/22 14:29:12;;;;;;;23.47;8.97;;;;;;;;;;5010974;28;20477;-89
2023/01/22 14:31:37;;;;;;;19.73;9.53;;;;;;;;;;4994997;28;20013;-89